Monday, December 5, 2016, 11:35 AM EST

KLKU, Louisa, Louisa County Airport/freeman Field

Location: Louisa, VA, United States Lat: 38.01
Local Time: 11:35 AM EST (16:35 GMT) Lon: -77.97
Time Zone: US/Eastern Elev: 492 ft

Show me the last for .
Show Decoded

2016-12-05 11:15 METAR KLKU 051615Z AUTO 00000KT 10SM OVC003 08/07 A3002 RMK AO2 =
2016-12-05 10:55 METAR KLKU 051555Z AUTO 31003KT 7SM OVC003 07/07 A3002 RMK AO2 =
2016-12-05 10:35 METAR KLKU 051535Z AUTO 00000KT 4SM BR OVC003 07/07 A3002 RMK AO2 =
2016-12-05 10:15 METAR KLKU 051515Z AUTO 00000KT 1 1/2SM BR OVC001 07/06 A3001 RMK AO2 =
2016-12-05 09:55 METAR KLKU 051455Z AUTO 30005KT 3/4SM BR OVC001 07/06 A3001 RMK AO2 =
2016-12-05 09:35 METAR KLKU 051435Z AUTO 33003KT 3/4SM BR OVC001 06/06 A3000 RMK AO2 =
2016-12-05 09:15 METAR KLKU 051415Z AUTO 00000KT 1 1/2SM BR OVC003 06/06 A3000 RMK AO2 =
2016-12-05 08:55 METAR KLKU 051355Z AUTO 27005KT 3SM BR OVC003 06/06 A3000 RMK AO2 =
2016-12-05 08:35 METAR KLKU 051335Z AUTO 26003KT 4SM BR OVC003 06/06 A3000 RMK AO2 =
2016-12-05 08:15 METAR KLKU 051315Z AUTO 25004KT 7SM OVC003 06/06 A2999 RMK AO2 =
2016-12-05 07:55 METAR KLKU 051255Z AUTO 23003KT 4SM BR OVC003 06/05 A2998 RMK AO2 =
2016-12-05 07:35 METAR KLKU 051235Z AUTO 22003KT 5SM BR OVC003 06/06 A2998 RMK AO2 =
2016-12-05 07:15 METAR KLKU 051215Z AUTO 21003KT 10SM OVC003 06/06 A2998 RMK AO2 =
2016-12-05 06:55 METAR KLKU 051155Z AUTO 00000KT 10SM OVC005 06/06 A2997 RMK AO2 =
2016-12-05 06:35 METAR KLKU 051135Z AUTO 00000KT 10SM OVC005 06/06 A2998 RMK AO2 =
2016-12-05 06:15 METAR KLKU 051115Z AUTO 00000KT 10SM OVC005 06/05 A2998 RMK AO2 =
2016-12-05 05:55 METAR KLKU 051055Z AUTO 00000KT 10SM OVC005 06/05 A2998 RMK AO2 =
2016-12-05 05:35 METAR KLKU 051035Z AUTO 00000KT 10SM OVC005 06/05 A2998 RMK AO2 =
2016-12-05 05:15 METAR KLKU 051015Z AUTO 00000KT 10SM BKN005 OVC055 06/06 A2998 RMK AO2 =
2016-12-05 04:55 METAR KLKU 050955Z AUTO 19003KT 10SM BKN005 OVC055 06/06 A2998 RMK AO2 =
2016-12-05 04:35 METAR KLKU 050935Z AUTO 19003KT 10SM BKN005 OVC038 06/06 A2999 RMK AO2 =
2016-12-05 04:15 METAR KLKU 050915Z AUTO 18005KT 10SM BKN005 OVC036 06/06 A2999 RMK AO2 =
2016-12-05 03:55 METAR KLKU 050855Z AUTO 18004KT 10SM OVC005 06/05 A3000 RMK AO2 =
2016-12-05 03:35 METAR KLKU 050835Z AUTO 18005KT 10SM OVC005 06/06 A3000 RMK AO2 =
2016-12-05 03:15 METAR KLKU 050815Z AUTO 18006KT 10SM BKN005 OVC050 06/05 A3001 RMK AO2 =
2016-12-05 02:55 METAR KLKU 050755Z AUTO 17005KT 5SM DZ BKN005 OVC055 06/05 A3001 RMK AO2 P0004 =
2016-12-05 02:35 METAR KLKU 050735Z AUTO 19005KT 4SM DZ BKN005 BKN008 OVC049 06/05 A3003 RMK AO2
                 P0004 =
2016-12-05 02:15 METAR KLKU 050715Z AUTO 20004KT 4SM RA BKN005 BKN008 OVC023 06/05 A3004 RMK AO2
                 P0002 =
2016-12-05 01:55 METAR KLKU 050655Z AUTO 22003KT 2 1/2SM RA BKN005 BKN008 OVC014 06/05 A3005 RMK
                 AO2 P0007 =
2016-12-05 01:35 METAR KLKU 050635Z AUTO 19003KT 2 1/2SM +RA BKN005 OVC009 06/05 A3004 RMK AO2
                 P0004 =
2016-12-05 01:15 METAR KLKU 050615Z AUTO 19003KT 2 1/2SM +DZ OVC005 06/05 A3004 RMK AO2 P0001 =
2016-12-05 00:55 METAR KLKU 050555Z AUTO 18004KT 2 1/2SM +DZ OVC003 05/05 A3003 RMK AO2 P0003 =
2016-12-05 00:35 METAR KLKU 050535Z AUTO 19004KT 3SM DZ OVC003 05/04 A3004 RMK AO2 P0002 =
2016-12-05 00:15 METAR KLKU 050515Z AUTO 18004KT 2 1/2SM DZ OVC003 05/04 A3005 RMK AO2 P0001 =
2016-12-04 23:55 METAR KLKU 050455Z AUTO 16003KT 2 1/2SM DZ OVC003 05/04 A3005 RMK AO2 P0004 =
2016-12-04 23:35 METAR KLKU 050435Z AUTO 00000KT 2SM +DZ OVC003 05/04 A3006 RMK AO2 P0003 =
2016-12-04 23:15 METAR KLKU 050415Z AUTO 16003KT 2SM DZ OVC005 05/04 A3008 RMK AO2 P0002 =
2016-12-04 22:55 METAR KLKU 050355Z AUTO 18003KT 2 1/2SM DZ OVC005 05/04 A3010 RMK AO2 P0003 =
2016-12-04 22:35 METAR KLKU 050335Z AUTO 15003KT 2 1/2SM -RA BKN005 BKN008 OVC028 05/04 A3009 RMK
                 AO2 P0002 =
2016-12-04 22:15 METAR KLKU 050315Z AUTO 14003KT 4SM DZ BKN030 OVC035 05/04 A3011 RMK AO2 P0001 =
2016-12-04 21:55 METAR KLKU 050255Z AUTO 15004KT 4SM RA BKN036 OVC041 05/04 A3011 RMK AO2 P0001 =
2016-12-04 21:35 METAR KLKU 050235Z AUTO 00000KT 4SM DZ BKN036 OVC050 05/04 A3012 RMK AO2 =
2016-12-04 21:15 METAR KLKU 050215Z AUTO 00000KT 5SM DZ BKN034 BKN040 OVC065 05/04 A3012 RMK AO2
                 =
2016-12-04 20:55 METAR KLKU 050155Z AUTO 00000KT 7SM DZ SCT036 BKN049 OVC065 05/04 A3012 RMK AO2
                 P0002 =
2016-12-04 20:35 METAR KLKU 050135Z AUTO 00000KT 10SM -RA OVC036 05/04 A3014 RMK AO2 P0001 =
2016-12-04 20:15 METAR KLKU 050115Z AUTO 00000KT 10SM RA OVC038 06/03 A3015 RMK AO2 =
2016-12-04 19:55 METAR KLKU 050055Z AUTO 00000KT 10SM DZ OVC040 06/03 A3015 RMK AO2 =
2016-12-04 19:35 METAR KLKU 050035Z AUTO 17003KT 10SM -DZ OVC040 06/02 A3015 RMK AO2 =
2016-12-04 19:15 METAR KLKU 050015Z AUTO 17003KT 10SM -DZ OVC042 07/01 A3015 RMK AO2 =
2016-12-04 18:55 METAR KLKU 042355Z AUTO 00000KT 10SM OVC044 07/01 A3016 RMK AO2 =
2016-12-04 18:35 METAR KLKU 042335Z AUTO 17003KT 10SM OVC048 07/01 A3016 RMK AO2 =
2016-12-04 18:15 METAR KLKU 042315Z AUTO 00000KT 10SM BKN050 OVC100 07/01 A3016 RMK AO2 =
2016-12-04 17:55 METAR KLKU 042255Z AUTO 00000KT 10SM BKN050 BKN090 OVC110 07/01 A3017 RMK AO2 =
2016-12-04 17:35 METAR KLKU 042235Z AUTO 00000KT 10SM BKN090 120 07/01 A3017 RMK AO2 =
2016-12-04 17:15 METAR KLKU 042215Z AUTO 00000KT 10SM SCT065 OVC110 07/01 A3018 RMK AO2 =
2016-12-04 16:55 METAR KLKU 042155Z AUTO 00000KT 10SM SCT065 OVC110 07/01 A3018 RMK AO2 =
2016-12-04 16:35 METAR KLKU 042135Z AUTO 00000KT 10SM BKN065 OVC110 07/01 A3017 RMK AO2 =
2016-12-04 16:15 METAR KLKU 042115Z AUTO 00000KT 10SM OVC065 08/01 A3018 RMK AO2 =
2016-12-04 15:55 METAR KLKU 042055Z AUTO 00000KT 10SM OVC075 08/01 A3019 RMK AO2 =
2016-12-04 15:35 METAR KLKU 042035Z AUTO 00000KT 10SM BKN075 08/01 A3018 RMK AO2 =
2016-12-04 15:15 METAR KLKU 042015Z AUTO 00000KT 10SM CLR 08/01 A3019 RMK AO2 =
2016-12-04 14:55 METAR KLKU 041955Z AUTO 00000KT 10SM CLR 08/01 A3019 RMK AO2 =
2016-12-04 14:35 METAR KLKU 041935Z AUTO 15004KT 10SM CLR 08/01 A3019 RMK AO2 =
2016-12-04 14:15 METAR KLKU 041915Z AUTO 00000KT 10SM CLR 08/01 A3019 RMK AO2 =
2016-12-04 13:55 METAR KLKU 041855Z AUTO 00000KT 10SM CLR 08/00 A3021 RMK AO2 =
2016-12-04 13:35 METAR KLKU 041835Z AUTO 00000KT 10SM CLR 08/00 A3022 RMK AO2 =
2016-12-04 13:15 METAR KLKU 041815Z AUTO 00000KT 10SM CLR 08/01 A3023 RMK AO2 =
2016-12-04 12:55 METAR KLKU 041755Z AUTO 00000KT 10SM CLR 08/01 A3024 RMK AO2 =
2016-12-04 12:35 METAR KLKU 041735Z AUTO 00000KT 10SM CLR 08/01 A3024 RMK AO2 =
2016-12-04 12:15 METAR KLKU 041715Z AUTO 21003KT 10SM CLR 08/02 A3024 RMK AO2 =
2016-12-04 11:55 METAR KLKU 041655Z AUTO 00000KT 10SM CLR 07/02 A3025 RMK AO2 =

Support USWX by starting your Amazon purchase here.